createdAt,value
2022-10-28T00:00:51.998Z,81.03
2022-10-28T00:03:20.092Z,81.74
2022-10-28T00:05:47.814Z,81.22
2022-10-28T00:08:15.499Z,81.38
2022-10-28T00:10:43.136Z,81.38
2022-10-28T00:13:12.409Z,80.96
2022-10-28T00:15:40.014Z,81.42
2022-10-28T00:18:07.607Z,81.31
2022-10-28T00:20:35.252Z,81.29
2022-10-28T00:23:02.860Z,81.13
2022-10-28T00:25:30.573Z,80.69
2022-10-28T00:27:58.170Z,80.79
2022-10-28T00:30:27.186Z,81.09
2022-10-28T00:32:55.031Z,81.36
2022-10-28T00:35:22.752Z,81.33
2022-10-28T00:37:54.336Z,81.15
2022-10-28T00:40:22.498Z,80.96
2022-10-28T00:42:50.294Z,80.48
2022-10-28T00:45:18.301Z,80.83
2022-10-28T00:47:55.457Z,81.08
2022-10-28T00:50:40.569Z,80.84
2022-10-28T00:53:12.172Z,80.82
2022-10-28T00:55:39.980Z,80.76
2022-10-28T00:58:09.653Z,80.84
2022-10-28T01:00:37.320Z,80.97
2022-10-28T01:03:08.242Z,80.96
2022-10-28T01:05:39.209Z,81.42
2022-10-28T01:08:07.380Z,81.12
2022-10-28T01:10:55.492Z,81.07
2022-10-28T01:13:35.296Z,81.27
2022-10-28T01:16:08.425Z,81.22
2022-10-28T01:18:45.626Z,81.40
2022-10-28T01:21:47.695Z,81.21
2022-10-28T01:24:27.105Z,81.17
2022-10-28T01:27:16.824Z,81.36
2022-10-28T01:30:13.940Z,81.43
2022-10-28T01:33:06.951Z,81.01
2022-10-28T01:35:42.891Z,81.62
2022-10-28T01:38:20.952Z,81.58
2022-10-28T01:40:56.104Z,81.67
2022-10-28T01:43:29.429Z,81.97
2022-10-28T01:46:01.811Z,82.06
2022-10-28T01:51:13.561Z,82.47
2022-10-28T01:53:44.437Z,82.32
2022-10-28T01:56:17.339Z,82.52
2022-10-28T01:58:46.172Z,82.17
2022-10-28T02:01:15.294Z,82.53
2022-10-28T02:03:46.726Z,82.63
2022-10-28T02:06:17.947Z,82.75
2022-10-28T02:08:58.623Z,82.54
2022-10-28T02:12:04.420Z,82.46
2022-10-28T02:14:56.374Z,82.94
2022-10-28T02:17:32.703Z,83.09
2022-10-28T02:20:10.286Z,83.11
2022-10-28T02:22:47.043Z,83.29
2022-10-28T02:25:20.714Z,83.41
2022-10-28T02:27:55.308Z,83.76
2022-10-28T02:30:26.521Z,83.71
2022-10-28T02:32:58.569Z,83.51
2022-10-28T02:35:32.725Z,83.76
2022-10-28T02:38:04.825Z,83.95
2022-10-28T02:40:35.239Z,83.90
2022-10-28T02:43:06.718Z,84.41
2022-10-28T02:45:40.603Z,84.51
2022-10-28T02:48:11.501Z,84.38
2022-10-28T02:50:47.606Z,84.31
2022-10-28T02:53:19.237Z,84.28
2022-10-28T02:55:52.059Z,84.29
2022-10-28T02:58:19.928Z,84.50
2022-10-28T03:00:49.615Z,85.00
2022-10-28T03:03:17.414Z,85.19
2022-10-28T03:05:46.627Z,85.11
2022-10-28T03:08:14.254Z,85.22
2022-10-28T03:10:41.886Z,85.28
2022-10-28T03:13:09.515Z,85.55
2022-10-28T03:15:37.118Z,85.36
2022-10-28T03:18:04.885Z,85.63
2022-10-28T03:20:32.531Z,85.82
2022-10-28T03:23:01.519Z,85.88
2022-10-28T03:25:29.192Z,85.90
2022-10-28T03:27:56.917Z,86.17
2022-10-28T03:30:24.591Z,86.33
2022-10-28T03:32:52.505Z,86.42
2022-10-28T03:35:20.435Z,86.22
2022-10-28T03:37:48.054Z,86.49
2022-10-28T03:40:17.290Z,86.15
2022-10-28T03:42:45.638Z,86.25
2022-10-28T03:45:13.281Z,86.21
2022-10-28T03:47:41.143Z,86.58
2022-10-28T03:50:09.652Z,86.73
2022-10-28T03:52:37.317Z,86.97
2022-10-28T03:55:05.696Z,87.24
2022-10-28T03:57:35.097Z,86.82
2022-10-28T04:00:02.956Z,86.92
2022-10-28T04:02:30.588Z,86.91
2022-10-28T04:04:58.298Z,87.15
2022-10-28T04:07:26.020Z,87.46
2022-10-28T04:09:53.612Z,87.32
2022-10-28T04:12:21.232Z,87.28
2022-10-28T04:14:50.354Z,87.14
2022-10-28T04:17:17.956Z,87.32
2022-10-28T04:19:45.614Z,87.51
2022-10-28T04:22:13.214Z,87.64
2022-10-28T04:24:40.809Z,87.60
2022-10-28T04:27:08.607Z,87.03
2022-10-28T04:29:36.223Z,86.45
2022-10-28T04:32:05.210Z,86.84
2022-10-28T04:34:32.841Z,87.17
2022-10-28T04:37:00.633Z,87.14
2022-10-28T04:39:28.243Z,87.24
2022-10-28T04:41:55.846Z,87.50
2022-10-28T04:44:23.488Z,87.66
2022-10-28T04:46:51.061Z,87.48
2022-10-28T04:49:20.061Z,87.03
2022-10-28T04:54:20.344Z,87.70
2022-10-28T04:56:48.003Z,87.97
2022-10-28T04:59:15.625Z,87.92
2022-10-28T05:01:43.361Z,87.78
2022-10-28T05:04:11.118Z,87.81
2022-10-28T05:06:40.772Z,88.17
2022-10-28T05:09:08.378Z,88.43
2022-10-28T05:11:36.069Z,88.26
2022-10-28T05:14:03.721Z,88.41
2022-10-28T05:16:31.593Z,88.29
2022-10-28T05:18:59.811Z,88.13
2022-10-28T05:21:27.798Z,88.38
2022-10-28T05:23:56.807Z,88.19
2022-10-28T05:26:24.418Z,88.03
2022-10-28T05:28:52.308Z,88.03
2022-10-28T05:31:20.095Z,87.89
2022-10-28T05:33:47.752Z,87.85
2022-10-28T05:36:15.379Z,87.53
2022-10-28T05:38:45.403Z,87.55
2022-10-28T05:41:14.489Z,87.13
2022-10-28T05:43:42.146Z,87.06
2022-10-28T05:46:10.698Z,87.26
2022-10-28T05:48:38.320Z,87.20
2022-10-28T05:51:06.149Z,86.93
2022-10-28T05:53:33.934Z,87.13
2022-10-28T05:56:01.567Z,87.14
2022-10-28T05:58:30.540Z,86.84
2022-10-28T06:00:58.311Z,86.59
2022-10-28T06:03:30.113Z,86.69
2022-10-28T06:05:59.609Z,86.48
2022-10-28T06:08:27.706Z,86.52
2022-10-28T06:10:54.725Z,86.61
2022-10-28T06:13:22.507Z,86.74
2022-10-28T06:15:52.565Z,86.55
2022-10-28T06:18:20.418Z,86.79
2022-10-28T06:20:52.244Z,86.72
2022-10-28T06:23:19.933Z,87.08
2022-10-28T06:25:47.769Z,86.25
2022-10-28T06:28:15.657Z,86.32
2022-10-28T06:30:43.317Z,86.59
2022-10-28T06:33:12.377Z,86.81
2022-10-28T06:35:40.013Z,86.56
2022-10-28T06:38:09.599Z,86.38
2022-10-28T06:40:37.480Z,86.59
2022-10-28T06:43:07.445Z,86.55
2022-10-28T06:45:35.118Z,86.42
2022-10-28T06:48:06.442Z,86.35
2022-10-28T06:50:35.917Z,86.07
2022-10-28T06:53:04.018Z,85.98
2022-10-28T06:55:32.259Z,85.93
2022-10-28T06:58:01.012Z,85.97
2022-10-28T07:03:02.670Z,85.71
2022-10-28T07:05:30.580Z,85.34
2022-10-28T07:07:59.630Z,85.51
2022-10-28T07:10:27.341Z,85.37
2022-10-28T07:12:55.219Z,84.81
2022-10-28T07:15:23.350Z,84.30
2022-10-28T07:17:53.708Z,83.49
2022-10-28T07:20:21.773Z,83.24
2022-10-28T07:22:49.479Z,82.42
2022-10-28T07:25:18.622Z,82.14
2022-10-28T07:27:46.430Z,82.15
2022-10-28T07:30:14.536Z,81.36
2022-10-28T07:32:42.246Z,80.74
2022-10-28T07:35:10.291Z,80.22
2022-10-28T07:37:39.419Z,79.27
2022-10-28T07:40:08.169Z,78.24
2022-10-28T07:42:37.241Z,78.46
2022-10-28T07:45:06.111Z,77.66
2022-10-28T07:47:48.349Z,77.49
2022-10-28T07:50:19.810Z,76.86
2022-10-28T07:52:48.158Z,74.80
2022-10-28T07:55:15.847Z,75.04
2022-10-28T07:57:45.876Z,74.46
2022-10-28T08:00:14.049Z,74.31
2022-10-28T08:02:42.050Z,73.65
2022-10-28T08:05:10.433Z,73.22
2022-10-28T08:07:38.922Z,72.73
2022-10-28T08:10:07.887Z,72.75
2022-10-28T08:12:35.543Z,73.38
2022-10-28T08:15:05.561Z,73.75
2022-10-28T08:17:33.264Z,73.23
2022-10-28T08:20:00.919Z,72.97
2022-10-28T08:22:28.578Z,72.16
2022-10-28T08:24:56.241Z,72.94
2022-10-28T08:27:23.974Z,73.02
2022-10-28T08:29:53.351Z,72.76
2022-10-28T08:32:22.590Z,73.00
2022-10-28T08:34:50.233Z,72.43
2022-10-28T08:37:17.972Z,71.92
2022-10-28T08:39:45.662Z,70.65
2022-10-28T08:42:34.969Z,72.75
2022-10-28T08:45:23.612Z,71.91
2022-10-28T08:48:13.212Z,71.82
2022-10-28T08:50:47.682Z,71.82
2022-10-28T08:53:20.080Z,71.35
2022-10-28T08:55:51.946Z,71.11
2022-10-28T08:58:24.926Z,71.06
2022-10-28T09:00:55.041Z,70.83
2022-10-28T09:03:26.855Z,70.90
2022-10-28T09:06:03.074Z,70.84
2022-10-28T09:08:36.223Z,70.38
2022-10-28T09:11:37.447Z,69.44
2022-10-28T09:14:16.335Z,69.67
2022-10-28T09:16:48.201Z,69.53
2022-10-28T09:19:28.917Z,68.12
2022-10-28T09:22:15.295Z,67.80
2022-10-28T09:24:52.808Z,67.27
2022-10-28T09:27:33.948Z,67.07
2022-10-28T09:30:20.466Z,66.93
2022-10-28T09:32:57.036Z,67.46
2022-10-28T09:35:29.702Z,67.28
2022-10-28T09:38:12.968Z,67.14
2022-10-28T09:40:44.889Z,67.03
2022-10-28T09:43:26.293Z,66.34
2022-10-28T09:46:00.149Z,65.42
2022-10-28T09:48:30.666Z,64.31
2022-10-28T09:51:00.288Z,63.25
2022-10-28T09:53:37.292Z,63.49
2022-10-28T09:56:06.396Z,64.24
2022-10-28T09:58:35.401Z,64.88
2022-10-28T10:01:04.848Z,65.26
2022-10-28T10:03:32.914Z,64.94
2022-10-28T10:06:10.766Z,65.00
2022-10-28T10:08:40.299Z,65.30
2022-10-28T10:11:14.760Z,64.88
2022-10-28T10:13:44.870Z,64.52
2022-10-28T10:16:18.545Z,64.67
2022-10-28T10:18:51.008Z,63.79
2022-10-28T10:21:43.982Z,63.77
2022-10-28T10:24:32.605Z,63.62
2022-10-28T10:27:03.201Z,64.22
2022-10-28T10:29:32.291Z,63.61
2022-10-28T10:32:17.734Z,63.27
2022-10-28T10:34:49.797Z,63.42
2022-10-28T10:37:21.900Z,63.05
2022-10-28T10:40:02.476Z,63.13
2022-10-28T10:42:30.141Z,62.70
2022-10-28T10:45:01.549Z,62.86
2022-10-28T10:47:29.763Z,62.12
2022-10-28T10:50:20.465Z,61.42
2022-10-28T10:52:56.642Z,62.00
2022-10-28T10:55:33.372Z,60.97
2022-10-28T10:58:02.469Z,60.22
2022-10-28T11:00:36.638Z,60.29
2022-10-28T11:03:07.793Z,60.56
2022-10-28T11:05:38.103Z,59.10
2022-10-28T11:08:25.432Z,59.58
2022-10-28T11:11:05.506Z,59.36
2022-10-28T11:13:34.998Z,59.38
2022-10-28T11:16:04.076Z,59.12
2022-10-28T11:18:41.891Z,58.85
2022-10-28T11:21:19.977Z,58.82
2022-10-28T11:23:59.679Z,58.07
2022-10-28T11:26:28.178Z,57.12
2022-10-28T11:29:08.566Z,57.61
2022-10-28T11:32:02.584Z,57.84
2022-10-28T11:34:46.416Z,56.64
2022-10-28T11:37:21.867Z,57.16
2022-10-28T11:40:05.733Z,57.40
2022-10-28T11:42:42.660Z,57.64
2022-10-28T11:45:19.686Z,57.87
2022-10-28T11:48:08.505Z,56.96
2022-10-28T11:50:48.097Z,57.24
2022-10-28T11:53:39.666Z,57.25
2022-10-28T11:56:18.543Z,57.40
2022-10-28T11:58:57.364Z,57.44
2022-10-28T12:01:42.191Z,56.65
2022-10-28T12:04:26.493Z,56.80
2022-10-28T12:07:12.324Z,56.32
2022-10-28T12:09:56.677Z,54.98
2022-10-28T12:12:32.157Z,54.08
2022-10-28T12:15:12.348Z,54.04
2022-10-28T12:17:48.458Z,53.47
2022-10-28T12:20:24.449Z,52.81
2022-10-28T12:22:55.547Z,53.32
2022-10-28T12:25:26.830Z,52.65
2022-10-28T12:27:59.927Z,52.27
2022-10-28T12:30:30.315Z,53.27
2022-10-28T12:33:02.332Z,54.05
2022-10-28T12:35:34.003Z,54.37
2022-10-28T12:38:09.184Z,54.03
2022-10-28T12:40:42.685Z,54.23
2022-10-28T12:43:16.759Z,54.76
2022-10-28T12:45:45.108Z,54.50
2022-10-28T12:48:20.655Z,54.85
2022-10-28T12:50:53.728Z,54.75
2022-10-28T12:53:33.560Z,54.37
2022-10-28T12:56:03.239Z,53.92
2022-10-28T12:58:34.110Z,54.51
2022-10-28T13:01:05.709Z,55.19
2022-10-28T13:03:33.380Z,55.83
2022-10-28T13:06:26.729Z,55.34
2022-10-28T13:09:14.011Z,54.79
2022-10-28T13:11:59.878Z,54.87
2022-10-28T13:14:53.347Z,55.37
2022-10-28T13:17:34.515Z,55.44
2022-10-28T13:20:13.920Z,55.69
2022-10-28T13:22:58.140Z,55.21
2022-10-28T13:25:52.409Z,56.41
2022-10-28T13:28:22.056Z,55.71
2022-10-28T13:31:00.428Z,56.41
2022-10-28T13:33:30.201Z,56.97
2022-10-28T13:36:09.212Z,56.61
2022-10-28T13:38:37.617Z,55.77
2022-10-28T13:41:28.214Z,55.13
2022-10-28T13:44:14.980Z,56.64
2022-10-28T13:47:16.170Z,56.75
2022-10-28T13:50:32.945Z,56.18
2022-10-28T13:53:43.651Z,56.59
2022-10-28T13:56:39.714Z,57.42
2022-10-28T13:59:19.621Z,57.03
2022-10-28T14:02:01.893Z,56.94
2022-10-28T14:04:39.306Z,56.30
2022-10-28T14:07:26.716Z,56.72
2022-10-28T14:09:58.641Z,55.92
2022-10-28T14:12:29.589Z,55.79
2022-10-28T14:15:01.699Z,55.95
2022-10-28T14:17:35.706Z,56.23
2022-10-28T14:20:06.617Z,57.25
2022-10-28T14:22:37.701Z,56.98
2022-10-28T14:25:44.520Z,57.26
2022-10-28T14:28:45.796Z,58.23
2022-10-28T14:31:35.320Z,57.89
2022-10-28T14:34:42.515Z,57.99
2022-10-28T14:38:02.512Z,58.77
2022-10-28T14:40:35.950Z,58.26
2022-10-28T14:43:36.993Z,58.40
2022-10-28T14:46:18.443Z,58.75
2022-10-28T14:48:50.546Z,59.91
2022-10-28T14:51:21.603Z,59.86
2022-10-28T14:53:54.940Z,60.42
2022-10-28T14:56:26.149Z,60.59
2022-10-28T14:58:56.199Z,61.07
2022-10-28T15:01:28.710Z,61.15
2022-10-28T15:04:00.143Z,61.75
2022-10-28T15:06:38.965Z,62.47
2022-10-28T15:09:20.656Z,62.77
2022-10-28T15:11:51.478Z,63.75
2022-10-28T15:14:28.185Z,63.67
2022-10-28T15:16:56.619Z,64.26
2022-10-28T15:19:26.290Z,63.21
2022-10-28T15:22:19.840Z,63.35
2022-10-28T15:24:56.778Z,64.15
2022-10-28T15:27:25.791Z,64.58
2022-10-28T15:29:53.781Z,64.51
2022-10-28T15:32:33.170Z,64.75
2022-10-28T15:35:21.220Z,65.28
2022-10-28T15:37:48.900Z,65.79
2022-10-28T15:40:30.760Z,66.95
2022-10-28T15:43:00.011Z,65.98
2022-10-28T15:45:30.453Z,66.47
2022-10-28T15:47:59.233Z,67.13
2022-10-28T15:50:30.238Z,66.71
2022-10-28T15:53:31.431Z,67.58
2022-10-28T15:56:22.965Z,67.62
2022-10-28T15:59:04.377Z,68.10
2022-10-28T16:01:38.785Z,69.11
2022-10-28T16:04:07.649Z,68.47
2022-10-28T16:06:37.871Z,68.53
2022-10-28T16:09:14.229Z,68.69
2022-10-28T16:11:46.226Z,68.54
2022-10-28T16:14:35.279Z,68.93
2022-10-28T16:17:10.397Z,68.56
2022-10-28T16:19:40.943Z,68.53
2022-10-28T16:22:13.302Z,68.70
2022-10-28T16:24:41.176Z,68.93
2022-10-28T16:27:19.536Z,69.23
2022-10-28T16:29:47.409Z,69.26
2022-10-28T16:32:16.259Z,68.20
2022-10-28T16:34:44.192Z,67.63
2022-10-28T16:37:21.793Z,68.19
2022-10-28T16:39:49.680Z,68.37
2022-10-28T16:42:20.160Z,69.05
2022-10-28T16:44:47.822Z,69.79
2022-10-28T16:47:16.990Z,70.32
2022-10-28T16:49:45.241Z,70.83
2022-10-28T16:52:16.365Z,71.11
2022-10-28T16:54:44.014Z,70.67
2022-10-28T16:57:11.644Z,70.08
2022-10-28T16:59:40.654Z,70.26
2022-10-28T17:02:16.561Z,70.73
2022-10-28T17:04:44.294Z,70.47
2022-10-28T17:07:16.182Z,70.69
2022-10-28T17:09:43.900Z,71.02
2022-10-28T17:12:14.209Z,72.01
2022-10-28T17:14:43.162Z,72.89
2022-10-28T17:17:11.324Z,72.34
2022-10-28T17:19:39.271Z,72.74
2022-10-28T17:22:09.342Z,73.52
2022-10-28T17:24:37.946Z,72.40
2022-10-28T17:27:07.306Z,71.64
2022-10-28T17:29:35.206Z,71.81
2022-10-28T17:32:04.651Z,72.36
2022-10-28T17:34:32.524Z,72.79
2022-10-28T17:37:00.154Z,72.70
2022-10-28T17:39:27.815Z,73.10
2022-10-28T17:41:55.443Z,73.50
2022-10-28T17:44:23.312Z,74.06
2022-10-28T17:46:51.658Z,74.69
2022-10-28T17:49:20.998Z,74.66
2022-10-28T17:51:48.614Z,74.59
2022-10-28T17:54:16.326Z,74.41
2022-10-28T17:56:45.273Z,74.05
2022-10-28T17:59:12.897Z,74.68
2022-10-28T18:01:40.672Z,74.68
2022-10-28T18:04:08.451Z,74.74
2022-10-28T18:06:37.460Z,75.07
2022-10-28T18:09:05.303Z,74.76
2022-10-28T18:11:35.316Z,75.44
2022-10-28T18:14:05.261Z,75.58
2022-10-28T18:16:33.672Z,75.72
2022-10-28T18:19:05.283Z,75.60
2022-10-28T18:21:33.373Z,75.54
2022-10-28T18:24:04.552Z,75.95
2022-10-28T18:26:33.059Z,75.92
2022-10-28T18:29:03.820Z,76.48
2022-10-28T18:31:33.004Z,77.09
2022-10-28T18:34:01.352Z,76.54
2022-10-28T18:36:30.699Z,76.23
2022-10-28T18:38:58.584Z,75.82
2022-10-28T18:41:29.017Z,76.28
2022-10-28T18:43:57.947Z,76.20
2022-10-28T18:46:26.542Z,76.73
2022-10-28T18:48:54.520Z,76.96
2022-10-28T18:51:22.193Z,76.90
2022-10-28T18:53:50.226Z,76.46
2022-10-28T18:56:19.793Z,76.72
2022-10-28T18:58:51.477Z,77.08
2022-10-28T19:01:21.292Z,77.19
2022-10-28T19:03:52.733Z,77.83
2022-10-28T19:06:24.488Z,77.81
2022-10-28T19:08:53.483Z,77.74
2022-10-28T19:11:22.470Z,77.24
2022-10-28T19:13:51.448Z,77.14
2022-10-28T19:16:19.102Z,76.98
2022-10-28T19:18:46.815Z,77.34
2022-10-28T19:21:16.257Z,76.53
2022-10-28T19:23:44.991Z,76.29
2022-10-28T19:26:13.682Z,77.22
2022-10-28T19:28:42.603Z,76.67
2022-10-28T19:31:13.901Z,76.55
2022-10-28T19:33:43.330Z,76.63
2022-10-28T19:36:14.389Z,77.07
2022-10-28T19:38:42.058Z,76.70
2022-10-28T19:41:11.511Z,77.30
2022-10-28T19:43:39.566Z,77.60
2022-10-28T19:46:10.211Z,77.92
2022-10-28T19:48:40.362Z,77.46
2022-10-28T19:51:09.253Z,77.13
2022-10-28T19:53:36.929Z,76.54
2022-10-28T19:56:05.454Z,76.47
2022-10-28T19:58:33.609Z,76.80
2022-10-28T20:01:03.413Z,76.87
2022-10-28T20:03:34.468Z,77.18
2022-10-28T20:06:06.856Z,76.90
2022-10-28T20:08:36.369Z,77.29
2022-10-28T20:11:06.057Z,77.27
2022-10-28T20:13:34.370Z,77.69
2022-10-28T20:16:03.998Z,77.32
2022-10-28T20:18:32.305Z,77.64
2022-10-28T20:21:13.615Z,76.32
2022-10-28T20:23:41.516Z,76.03
2022-10-28T20:26:10.195Z,75.69
2022-10-28T20:28:38.363Z,74.59
2022-10-28T20:31:08.443Z,74.86
2022-10-28T20:33:37.706Z,75.37
2022-10-28T20:36:07.253Z,76.19
2022-10-28T20:38:36.250Z,76.09
2022-10-28T20:41:03.872Z,76.15
2022-10-28T20:43:31.490Z,75.79
2022-10-28T20:46:00.457Z,75.81
2022-10-28T20:48:29.203Z,75.81
2022-10-28T20:50:58.419Z,75.75
2022-10-28T20:53:27.600Z,74.45
2022-10-28T20:55:58.228Z,74.00
2022-10-28T20:58:29.047Z,74.18
2022-10-28T21:01:03.286Z,74.34
2022-10-28T21:03:30.978Z,73.92
2022-10-28T21:05:58.684Z,73.86
2022-10-28T21:08:26.383Z,73.94
2022-10-28T21:10:54.037Z,72.84
2022-10-28T21:13:23.007Z,72.79
2022-10-28T21:15:56.332Z,72.59
2022-10-28T21:18:25.930Z,72.12
2022-10-28T21:20:56.956Z,72.69
2022-10-28T21:23:24.973Z,72.74
2022-10-28T21:25:55.829Z,72.46
2022-10-28T21:28:24.882Z,72.05
2022-10-28T21:30:52.479Z,72.36
2022-10-28T21:33:20.102Z,72.37
2022-10-28T21:35:56.628Z,72.41
2022-10-28T21:38:24.602Z,72.29
2022-10-28T21:41:00.110Z,72.05
2022-10-28T21:43:30.827Z,71.96
2022-10-28T21:45:58.657Z,72.10
2022-10-28T21:48:27.393Z,72.15
2022-10-28T21:50:56.987Z,71.80
2022-10-28T21:53:25.699Z,72.04
2022-10-28T21:55:55.488Z,72.29
2022-10-28T21:58:23.285Z,72.13
2022-10-28T22:00:52.267Z,72.20
2022-10-28T22:03:19.928Z,72.56
2022-10-28T22:05:51.500Z,72.27
2022-10-28T22:08:19.156Z,72.06
2022-10-28T22:10:46.825Z,72.28
2022-10-28T22:13:14.463Z,72.64
2022-10-28T22:15:42.146Z,72.85
2022-10-28T22:18:11.130Z,73.00
2022-10-28T22:20:38.754Z,73.58
2022-10-28T22:23:06.370Z,73.91
2022-10-28T22:25:34.051Z,73.41
2022-10-28T22:28:01.664Z,72.57
2022-10-28T22:30:29.248Z,72.92
2022-10-28T22:32:57.239Z,72.80
2022-10-28T22:35:26.442Z,72.85
2022-10-28T22:37:54.221Z,72.99
2022-10-28T22:40:22.040Z,72.72
2022-10-28T22:42:49.692Z,72.79
2022-10-28T22:45:17.914Z,72.35
2022-10-28T22:47:45.574Z,72.13
2022-10-28T22:50:13.228Z,72.12
2022-10-28T22:52:42.178Z,72.54
2022-10-28T22:55:10.696Z,72.20
2022-10-28T22:57:38.356Z,72.06
2022-10-28T23:00:07.090Z,72.12
2022-10-28T23:02:34.892Z,71.42
2022-10-28T23:05:02.588Z,71.67
2022-10-28T23:07:30.237Z,71.07
2022-10-28T23:10:00.476Z,70.44
2022-10-28T23:12:28.077Z,70.74
2022-10-28T23:14:55.910Z,70.81
2022-10-28T23:17:23.475Z,70.95
2022-10-28T23:19:51.054Z,70.64
2022-10-28T23:22:18.648Z,70.23
2022-10-28T23:24:46.277Z,69.80
2022-10-28T23:27:15.231Z,70.06
2022-10-28T23:29:42.902Z,69.84
2022-10-28T23:32:10.895Z,69.71
2022-10-28T23:34:38.501Z,69.55
2022-10-28T23:37:06.152Z,69.79
2022-10-28T23:39:33.769Z,69.93
2022-10-28T23:42:01.398Z,69.73
2022-10-28T23:44:30.419Z,69.81
2022-10-28T23:46:58.072Z,70.28
2022-10-28T23:49:25.668Z,70.42
2022-10-28T23:51:53.329Z,70.74
2022-10-28T23:54:21.031Z,71.10
2022-10-28T23:56:48.622Z,70.55
2022-10-28T23:59:16.333Z,70.30
